createdAt,value
2023-05-02T00:00:33.938Z,49.58
2023-05-02T00:05:35.361Z,49.58
2023-05-02T00:10:36.892Z,50.31
2023-05-02T00:15:38.222Z,50.78
2023-05-02T00:20:40.872Z,50.86
2023-05-02T00:25:46.123Z,50.66
2023-05-02T00:30:47.565Z,50.89
2023-05-02T00:35:48.915Z,50.32
2023-05-02T00:40:53.493Z,50.16
2023-05-02T00:45:55.339Z,49.97
2023-05-02T00:50:57.379Z,50.51
2023-05-02T00:55:59.344Z,50.82
2023-05-02T01:01:19.626Z,51.04
2023-05-02T01:06:39.611Z,51.26
2023-05-02T01:12:05.624Z,51.98
2023-05-02T01:17:11.217Z,51.95
2023-05-02T01:22:14.398Z,52.39
2023-05-02T01:27:28.084Z,52.71
2023-05-02T01:32:33.434Z,52.16
2023-05-02T01:37:38.100Z,52.17
2023-05-02T01:42:41.274Z,52.65
2023-05-02T01:47:44.683Z,52.45
2023-05-02T01:52:47.466Z,52.69
2023-05-02T01:57:50.627Z,52.76
2023-05-02T02:02:55.758Z,52.33
2023-05-02T02:07:58.442Z,52.58
2023-05-02T02:13:26.364Z,52.29
2023-05-02T02:18:29.408Z,52.65
2023-05-02T02:23:33.752Z,52.83
2023-05-02T02:28:35.155Z,53.06
2023-05-02T02:33:36.720Z,52.83
2023-05-02T02:38:50.598Z,53.01
2023-05-02T02:44:26.010Z,53.43
2023-05-02T02:50:09.595Z,53.99
2023-05-02T02:55:25.031Z,54.18
2023-05-02T03:00:28.663Z,54.54
2023-05-02T03:05:32.845Z,55.15
2023-05-02T03:10:34.182Z,54.85
2023-05-02T03:15:59.087Z,55.38
2023-05-02T03:21:01.007Z,55.41
2023-05-02T03:26:02.884Z,55.47
2023-05-02T03:31:04.415Z,55.68
2023-05-02T03:36:07.084Z,55.75
2023-05-02T03:41:08.440Z,55.81
2023-05-02T03:46:11.500Z,55.89
2023-05-02T03:51:13.334Z,55.87
2023-05-02T03:56:20.033Z,56.02
2023-05-02T04:01:21.455Z,55.88
2023-05-02T04:06:22.906Z,55.46
2023-05-02T04:11:26.183Z,55.09
2023-05-02T04:16:27.541Z,55.14
2023-05-02T04:21:28.889Z,54.83
2023-05-02T04:26:30.330Z,55.32
2023-05-02T04:31:32.767Z,56.00
2023-05-02T04:36:34.625Z,55.97
2023-05-02T05:03:33.589Z,57.59
2023-05-02T05:08:35.110Z,57.86
2023-05-02T05:13:36.431Z,57.37
2023-05-02T05:18:40.784Z,57.13
2023-05-02T05:23:45.916Z,57.44
2023-05-02T05:28:47.347Z,57.31
2023-05-02T05:33:48.712Z,56.93
2023-05-02T05:38:50.828Z,56.82
2023-05-02T05:43:52.234Z,56.68
2023-05-02T05:48:53.596Z,56.33
2023-05-02T05:53:55.448Z,56.27
2023-05-02T05:58:56.817Z,55.96
2023-05-02T06:03:58.999Z,55.64
2023-05-02T06:09:00.903Z,55.45
2023-05-02T06:14:02.358Z,54.91
2023-05-02T06:19:03.799Z,54.67
2023-05-02T06:24:05.520Z,54.85
2023-05-02T06:29:06.967Z,55.11
2023-05-02T06:34:08.289Z,55.07
2023-05-02T06:39:09.630Z,54.92
2023-05-02T06:44:10.969Z,54.67
2023-05-02T06:49:12.528Z,53.97
2023-05-02T06:54:15.696Z,54.06
2023-05-02T06:59:17.140Z,53.49
2023-05-02T07:04:18.518Z,52.31
2023-05-02T07:09:19.923Z,51.77
2023-05-02T07:14:21.698Z,51.41
2023-05-02T07:19:23.043Z,51.01
2023-05-02T07:24:24.371Z,50.70
2023-05-02T07:29:25.980Z,51.46
2023-05-02T07:34:27.338Z,51.13
2023-05-02T07:39:28.947Z,50.89
2023-05-02T07:44:30.294Z,51.53
2023-05-02T07:49:31.638Z,51.82
2023-05-02T07:54:32.984Z,52.24
2023-05-02T07:59:34.419Z,52.16
2023-05-02T08:04:35.859Z,51.64
2023-05-02T08:09:37.245Z,51.06
2023-05-02T08:14:38.580Z,50.66
2023-05-02T08:19:39.930Z,50.67
2023-05-02T08:24:41.253Z,50.82
2023-05-02T08:29:42.602Z,50.97
2023-05-02T08:34:43.927Z,51.16
2023-05-02T08:39:45.329Z,51.08
2023-05-02T08:44:48.343Z,50.96
2023-05-02T08:49:50.063Z,50.79
2023-05-02T08:54:52.226Z,50.95
2023-05-02T08:59:53.745Z,50.37
2023-05-02T09:04:59.634Z,50.37
2023-05-02T09:10:01.086Z,50.22
2023-05-02T09:15:19.869Z,50.23
2023-05-02T09:20:22.344Z,50.36
2023-05-02T09:25:23.850Z,50.10
2023-05-02T09:30:26.511Z,48.57
2023-05-02T09:35:28.007Z,47.79
2023-05-02T09:40:30.126Z,47.51
2023-05-02T09:45:31.541Z,46.64
2023-05-02T09:50:37.747Z,46.48
2023-05-02T09:55:39.527Z,46.58
2023-05-02T10:00:45.029Z,46.73
2023-05-02T10:05:47.779Z,46.60
2023-05-02T10:10:57.462Z,45.68
2023-05-02T10:16:04.235Z,44.40
2023-05-02T10:21:11.818Z,44.32
2023-05-02T10:26:16.131Z,42.60
2023-05-02T10:31:18.451Z,40.87
2023-05-02T10:36:22.353Z,40.38
2023-05-02T10:41:26.841Z,39.62
2023-05-02T10:46:41.147Z,39.21
2023-05-02T10:51:43.463Z,38.52
2023-05-02T10:57:03.171Z,37.67
2023-05-02T11:02:28.036Z,37.16
2023-05-02T11:07:34.535Z,36.89
2023-05-02T11:12:52.997Z,36.74
2023-05-02T11:18:07.226Z,36.31
2023-05-02T11:23:15.239Z,36.26
2023-05-02T11:28:38.630Z,36.70
2023-05-02T11:33:40.212Z,36.47
2023-05-02T11:38:41.647Z,36.02
2023-05-02T11:43:43.018Z,36.35
2023-05-02T11:48:45.053Z,35.86
2023-05-02T11:53:46.414Z,35.88
2023-05-02T11:58:58.815Z,35.44
2023-05-02T12:04:10.368Z,34.73
2023-05-02T12:09:19.152Z,35.44
2023-05-02T12:14:32.517Z,33.40
2023-05-02T12:19:34.800Z,34.54
2023-05-02T12:24:36.583Z,35.44
2023-05-02T12:29:45.425Z,35.94
2023-05-02T12:34:46.801Z,36.65
2023-05-02T12:39:48.175Z,37.00
2023-05-02T12:44:54.344Z,37.18
2023-05-02T12:49:57.874Z,38.29
2023-05-02T12:55:18.574Z,38.71
2023-05-02T13:00:20.001Z,39.41
2023-05-02T13:05:21.476Z,39.16
2023-05-02T13:10:24.804Z,38.10
2023-05-02T13:15:26.168Z,37.00
2023-05-02T13:20:27.597Z,36.69
2023-05-02T13:25:29.004Z,36.91
2023-05-02T13:30:30.718Z,36.42
2023-05-02T13:35:33.401Z,36.42
2023-05-02T13:40:36.582Z,37.34
2023-05-02T13:45:37.921Z,35.80
2023-05-02T13:50:39.395Z,35.33
2023-05-02T13:55:40.908Z,34.10
2023-05-02T14:00:42.541Z,33.21
2023-05-02T14:05:43.945Z,31.87
2023-05-02T14:10:45.382Z,29.59
2023-05-02T14:15:46.820Z,29.51
2023-05-02T14:20:48.189Z,29.61
2023-05-02T14:25:49.567Z,27.45
2023-05-02T14:30:51.332Z,28.52
2023-05-02T14:35:52.715Z,28.62
2023-05-02T14:40:54.930Z,29.33
2023-05-02T14:45:57.550Z,29.70
2023-05-02T14:51:00.660Z,29.88
2023-05-02T14:56:02.105Z,29.69
2023-05-02T15:01:03.540Z,28.91
2023-05-02T15:06:05.124Z,28.29
2023-05-02T15:11:06.740Z,29.46
2023-05-02T15:16:10.524Z,30.92
2023-05-02T15:21:11.972Z,30.20
2023-05-02T15:26:13.366Z,31.08
2023-05-02T15:31:14.849Z,31.05
2023-05-02T15:36:16.775Z,31.07
2023-05-02T15:41:18.110Z,31.17
2023-05-02T15:46:19.508Z,31.37
2023-05-02T15:51:20.840Z,31.10
2023-05-02T15:56:22.739Z,31.11
2023-05-02T16:01:24.339Z,30.72
2023-05-02T16:06:27.524Z,30.88
2023-05-02T16:11:28.944Z,31.13
2023-05-02T16:16:30.387Z,30.73
2023-05-02T16:21:31.933Z,30.92
2023-05-02T16:26:33.889Z,30.59
2023-05-02T16:31:35.336Z,31.00
2023-05-02T16:36:36.759Z,30.36
2023-05-02T16:41:38.194Z,30.72
2023-05-02T16:46:39.551Z,30.99
2023-05-02T16:51:40.887Z,30.60
2023-05-02T16:56:42.676Z,31.09
2023-05-02T17:01:44.412Z,30.49
2023-05-02T17:06:45.814Z,30.83
2023-05-02T17:11:47.253Z,30.47
2023-05-02T17:16:48.712Z,30.19
2023-05-02T17:26:53.179Z,30.51
2023-05-02T17:31:57.320Z,31.36
2023-05-02T17:36:58.962Z,32.01
2023-05-02T17:42:01.094Z,31.55
2023-05-02T17:47:03.347Z,31.72
2023-05-02T17:52:05.616Z,33.55
2023-05-02T17:57:07.003Z,35.22
2023-05-02T18:02:10.415Z,36.69
2023-05-02T18:07:11.927Z,37.71
2023-05-02T18:12:13.358Z,38.32
2023-05-02T18:17:14.886Z,38.96
2023-05-02T18:22:19.739Z,39.73
2023-05-02T18:27:21.293Z,40.58
2023-05-02T18:32:22.677Z,41.00
2023-05-02T18:37:31.062Z,41.25
2023-05-02T18:42:32.468Z,41.73
2023-05-02T18:47:34.922Z,42.27
2023-05-02T18:52:36.583Z,42.89
2023-05-02T18:57:38.052Z,43.18
2023-05-02T19:02:39.539Z,43.49
2023-05-02T19:07:41.003Z,43.63
2023-05-02T19:12:43.870Z,43.72
2023-05-02T19:17:45.566Z,43.63
2023-05-02T19:22:47.359Z,43.71
2023-05-02T19:27:49.800Z,43.81
2023-05-02T19:32:51.256Z,43.93
2023-05-02T19:37:52.664Z,44.17
2023-05-02T19:42:54.058Z,44.33
2023-05-02T19:47:56.294Z,44.49
2023-05-02T19:52:57.945Z,44.37
2023-05-02T19:58:00.554Z,44.71
2023-05-02T20:03:02.160Z,44.81
2023-05-02T20:08:03.750Z,44.79
2023-05-02T20:13:05.498Z,44.94
2023-05-02T20:18:06.922Z,45.94
2023-05-02T20:23:08.321Z,46.15
2023-05-02T20:28:10.293Z,46.31
2023-05-02T20:33:16.169Z,46.42
2023-05-02T20:38:20.336Z,47.04
2023-05-02T20:43:22.800Z,47.04
2023-05-02T20:48:24.124Z,47.04
2023-05-02T20:53:25.480Z,47.64
2023-05-02T20:58:26.857Z,47.88
2023-05-02T21:03:28.465Z,47.96
2023-05-02T21:08:29.867Z,47.92
2023-05-02T21:13:31.241Z,48.61
2023-05-02T21:18:32.569Z,48.44
2023-05-02T21:23:34.452Z,48.83
2023-05-02T21:28:38.839Z,48.86
2023-05-02T21:33:41.471Z,49.22
2023-05-02T21:38:42.929Z,49.15
2023-05-02T21:43:44.921Z,49.53
2023-05-02T21:48:46.307Z,49.40
2023-05-02T21:53:47.726Z,49.65
2023-05-02T21:58:51.171Z,49.59
2023-05-02T22:03:52.520Z,49.61
2023-05-02T22:08:53.833Z,49.70
2023-05-02T22:13:55.161Z,49.63
2023-05-02T22:18:57.819Z,49.94
2023-05-02T22:23:59.396Z,49.95
2023-05-02T22:29:00.747Z,49.98
2023-05-02T22:34:02.066Z,49.79
2023-05-02T22:39:03.929Z,49.98
2023-05-02T22:44:05.532Z,50.05
2023-05-02T22:49:10.235Z,50.17
2023-05-02T22:54:11.637Z,50.17
2023-05-02T22:59:12.956Z,50.21
2023-05-02T23:04:14.888Z,50.76
2023-05-02T23:09:16.277Z,50.58
2023-05-02T23:14:20.511Z,50.72
2023-05-02T23:19:21.821Z,50.68
2023-05-02T23:24:23.267Z,50.58
2023-05-02T23:29:25.618Z,51.10
2023-05-02T23:34:27.089Z,50.80
2023-05-02T23:39:28.495Z,51.31
2023-05-02T23:44:30.581Z,50.98
2023-05-02T23:49:32.056Z,51.21
2023-05-02T23:54:34.819Z,51.22
2023-05-02T23:59:36.126Z,51.41
